Tiempo atmosférico en la estación meteorológica de Zumaia, Gipuzkoa (28 m.)



Fecha
DESCASC
Temp. máxima en grados centígrados (hora)
DESCASC
Temp. mínima en grados centígrados (hora)
DESCASC
Temp. media en grados centígrados
DESCASC
Racha de viento máxima en m/sg (hora)
DESCASC
Velocidad máxima media en intervalos de 10 minutos(hora)
DESCASC
Precipitaciones diarias en mm
DESCASC
Precipitaciones de 00:00 a 06:00 en mm
DESCASC
Precipitaciones de 06:00 a 12:00 en mm
DESCASC
Precipitaciones de 12:00 a 18:00 en mm
DESCASC
Precipitaciones de 18:00 a 24:00 en mm
DESCASC
17-02-2019 23.9 (14:20) 14.8 (08:10) 19.3 20.28 (04:50) 11.67 (04:50) 0 0 0 0 0
16-02-2019 21.5 (14:00) 12.4 (02:00) 16.9 19.17 (23:59) 10 (23:40) 0 0 0 0 0
15-02-2019 23.5 (15:40) 12.7 (22:30) 18.1 17.5 (03:50) 10.28 (07:30) 0 0 0 0 0
14-02-2019 21.9 (15:10) 11.3 (00:00) 16.6 15.83 (23:40) 10 (23:40) 0 0 0 0 0
13-02-2019 13.8 (15:20) 3.7 (00:00) 8.8 6.11 (15:30) 4.44 (05:10) 0 0 0 0 0
12-02-2019 13.7 (15:30) 4.9 (00:00) 9.3 7.5 (15:40) 4.17 (07:20) 0.2 0.1 0.1 0 0
11-02-2019 14.7 (14:40) 7.5 (00:00) 11.1 16.39 (03:10) 10.56 (03:10) 5.3 1.7 3.2 0.3 0.1
10-02-2019 15.9 (00:10) 10.1 (00:00) 13 20.56 (11:20) 14.17 (11:20) 3.7 0 1.3 2.4 0
09-02-2019 19.8 (16:00) 9.8 (00:00) 14.8 14.17 (22:40) 7.22 (20:50) 0 0 0 0 0
08-02-2019 16.3 (15:10) 5.9 (00:00) 11.1 6.39 (20:20) 4.72 (05:10) 0 0 0 0 0
07-02-2019 13.2 (13:50) 6.5 (00:00) 9.8 11.11 (11:40) 6.94 (11:40) 0 0 0 0 0
06-02-2019 17.1 (15:40) 9 (00:00) 13.1 6.67 (13:40) 4.72 (13:30) 0 0 0 0 0
05-02-2019 14.9 (14:20) 9.7 (00:00) 12.3 8.33 (11:50) 4.17 (11:50) 0 0 0 0 0
04-02-2019 12.5 (13:50) 3 (00:00) 7.8 5.28 (08:00) 4.17 (07:50) 1 0 0 0.5 0.5
03-02-2019 12 (14:00) 4.6 (00:00) 8.3 24.44 (01:30) 16.67 (01:30) 2.2 0 0 1 1.2
02-02-2019 10.9 (14:30) 7.1 (00:00) 9 27.78 (11:00) 20.83 (11:00) 6.8 6 0.4 0.1 0.3
01-02-2019 15.9 (13:20) 6.8 (00:00) 11.3 18.61 (17:20) 9.17 (08:10) 5.5 1.9 0 3.5 0.1
31-01-2019 18.8 (15:00) 8.6 (00:00) 13.7 17.22 (02:00) 11.94 (02:00) 30.4 3.7 5.4 1.8 19.5
30-01-2019 13 (14:00) 6.5 (00:00) 9.8 21.39 (00:10) 14.72 (00:10) 14 1.6 10 0 2.4
29-01-2019 12.7 (16:20) 8.4 (00:00) 10.5 28.33 (22:40) 18.33 (21:40) 9.3 2.7 1.3 2.7 2.6
28-01-2019 12.7 (14:10) 8.4 (00:00) 10.5 28.33 (07:30) 18.61 (15:40) 8.3 3.4 1.7 1.4 1.8
27-01-2019 12 (04:00) 6.9 (00:00) 9.5 29.17 (12:40) 19.17 (15:20) 9.2 2 5 1.1 1.1
26-01-2019 15.9 (14:30) 7 (00:00) 11.4 6.94 (00:10) 3.61 (00:10) 0 0 0 0 0
25-01-2019 12.5 (14:00) 7.6 (00:00) 10 19.44 (03:00) 13.33 (03:20) 3.7 1.1 1.2 1.2 0.2
24-01-2019 10.8 (00:50) 6 (00:00) 8.4 19.17 (00:30) 13.61 (00:30) 7.2 0.1 4.3 1.4 1.4
23-01-2019 13.2 (07:00) 9.4 (00:00) 11.3 27.5 (07:40) 18.89 (07:30) 12.9 8.9 3.2 0.6 0.2
22-01-2019 10.4 (10:30) 5.8 (00:00) 8.1 18.33 (15:10) 10 (15:10) 25.1 0.1 1.5 13.5 10
21-01-2019 12.5 (15:10) 7.3 (00:00) 9.9 13.61 (12:00) 10.28 (06:00) 0.5 0 0 0 0.5
20-01-2019 12.9 (15:40) 8.7 (00:00) 10.8 17.22 (10:50) 10.56 (18:50) 4.4 0 3.5 0.5 0.4
19-01-2019 13.3 (15:40) 8 (00:00) 10.7 14.17 (16:00) 9.44 (16:00) 1.1 1.1 0 0 0

Gráficas

Temp. máximas Temp. mínimas Temp. medias Precipitaciones Rachas de viento máximas Velocidades máximas media en intervalos de 10 minutos

Datos horarios

Fecha y hora oficial Temperatura (ºC) Velocidad del viento (km/h) Dirección del viento Racha (km/h) Dirección de racha Precipitación (mm) Presión (hPa) Tendencia (hPa) Humedad (%)
2019-02-17 23:00:00 16.3 31 Sur 57 Sur 0 -- -- 34
2019-02-17 22:00:00 16.6 35 Sur 52 Sudoeste 0 -- -- 33
2019-02-17 21:00:00 16.9 22 Sur 41 Sudeste 0 -- -- 33
2019-02-17 20:00:00 16 15 Sur 32 Sudeste 0 -- -- 36
2019-02-17 19:00:00 15.4 6 Sudeste 12 Noroeste 0 -- -- 42
2019-02-17 18:00:00 18 0 Calma 13 Noroeste 0 -- -- 33
2019-02-17 17:00:00 20.7 4 Nordeste 28 Sur 0 -- -- 27
2019-02-17 16:00:00 23.2 12 Sur 42 Sur 0 -- -- 25
2019-02-17 15:00:00 23 29 Sur 45 Sur 0 -- -- 24
2019-02-17 14:00:00 23 12 Sur 31 Sudoeste 0 -- -- 25
2019-02-17 13:00:00 21.9 12 Sur 31 Sur 0 -- -- 25
2019-02-17 12:00:00 21.5 10 Sur 32 Sudoeste 0 -- -- 25
2019-02-17 11:00:00 19.7 16 Sur 51 Sudoeste 0 -- -- 25
2019-02-17 10:00:00 18 25 Sur 47 Sudoeste 0 -- -- 26
2019-02-17 09:00:00 16.5 25 Sur 48 Sudoeste 0 -- -- 27
2019-02-17 08:00:00 15 5 Nordeste 56 Sudoeste 0 -- -- 29
2019-02-17 07:00:00 15.3 33 Sur 63 Sur 0 -- -- 29
2019-02-17 06:00:00 15.7 35 Sur 66 Sudoeste 0 -- -- 29
2019-02-17 05:00:00 16.1 39 Sur 73 Sudoeste 0 -- -- 30
2019-02-17 04:00:00 16 31 Sur 55 Sudoeste 0 -- -- 31
2019-02-17 03:00:00 15.7 31 Sur 58 Sur 0 -- -- 31
2019-02-17 02:00:00 16.2 37 Sur 60 Sur 0 -- -- 31
2019-02-17 01:00:00 16.5 24 Sur 57 Sur 0 -- -- 32
2019-02-17 00:00:00 17.2 36 Sur 69 Sur 0 -- -- 32
2019-02-16 23:00:00 16.7 26 Sur 42 Sur 0 -- -- 33
2019-02-16 22:00:00 16.6 17 Sur 33 Sur 0 -- -- 33
2019-02-16 21:00:00 16.9 15 Sur 45 Sur 0 -- -- 33
2019-02-16 20:00:00 17 20 Sur 45 Sur 0 -- -- 35
2019-02-16 19:00:00 17.4 10 Sur 45 Sudeste 0 -- -- 35
2019-02-16 18:00:00 18.9 18 Sur 46 Sur 0 -- -- 34
2019-02-16 17:00:00 20 21 Sur 40 Sur 0 -- -- 33
2019-02-16 16:00:00 20.9 23 Sur 55 Sur 0 -- -- 32
2019-02-16 15:00:00 21.1 32 Sur 53 Sur 0 -- -- 33
2019-02-16 14:00:00 21.4 26 Sur 53 Sur 0 -- -- 35
2019-02-16 13:00:00 20.7 25 Sur 44 Sur 0 -- -- 37
2019-02-16 12:00:00 18.3 3 Nordeste 11 Nordeste 0 -- -- 43
2019-02-16 11:00:00 17.4 3 Este 13 Sudeste 0 -- -- 45
2019-02-16 10:00:00 17 4 Sur 24 Sur 0 -- -- 45
2019-02-16 09:00:00 14.1 15 Sur 27 Sur 0 -- -- 47
2019-02-16 08:00:00 13 15 Sur 24 Sudeste 0 -- -- 48
2019-02-16 07:00:00 13 14 Sur 25 Sur 0 -- -- 47
2019-02-16 06:00:00 12.9 14 Sudeste 25 Sur 0 -- -- 47
2019-02-16 05:00:00 12.7 10 Sur 21 Sur 0 -- -- 46
2019-02-16 04:00:00 13.5 5 Sudoeste 21 Sudeste 0 -- -- 44
2019-02-16 03:00:00 13.5 9 Sudeste 15 Sudeste 0 -- -- 44
2019-02-16 02:00:00 12.5 10 Sur 19 Sur 0 -- -- 47
2019-02-16 01:00:00 13 14 Sur 23 Sudoeste 0 -- -- 46
2019-02-16 00:00:00 14.4 17 Sudoeste 24 Sudoeste 0 -- -- 43
2019-02-15 23:00:00 13.2 16 Sudoeste 22 Sudoeste 0 -- -- 45
2019-02-15 22:00:00 13.3 13 Sur 21 Sudoeste 0 -- -- 40
2019-02-15 21:00:00 15.2 12 Sudoeste 27 Sur 0 -- -- 33
2019-02-15 20:00:00 16.6 15 Sur 29 Sur 0 -- -- 29
2019-02-15 19:00:00 17.1 12 Sur 22 Sudoeste 0 -- -- 29
2019-02-15 18:00:00 20.6 13 Sur 23 Sudoeste 0 -- -- 27
2019-02-15 17:00:00 22 12 Sur 24 Sur 0 -- -- 27
2019-02-15 16:00:00 23.3 14 Sur 31 Sudoeste 0 -- -- 27
2019-02-15 15:00:00 23.2 15 Sur 37 Sudoeste 0 -- -- 28
2019-02-15 14:00:00 22.3 19 Sur 42 Sudoeste 0 -- -- 30
2019-02-15 13:00:00 21.3 21 Sur 40 Sudoeste 0 -- -- 32
2019-02-15 12:00:00 20.2 17 Sur 39 Sur 0 -- -- 32
2019-02-15 11:00:00 18.6 23 Sur 41 Sur 0 -- -- 32
2019-02-15 10:00:00 17.2 24 Sur 80 Sudoeste 0 -- -- 32
2019-02-15 09:00:00 15.6 21 Sur 58 Sur 0 -- -- 33
2019-02-15 08:00:00 14.7 35 Sur 63 Sur 0 -- -- 35
2019-02-15 07:00:00 14.7 31 Sur 49 Sudoeste 0 -- -- 36
2019-02-15 06:00:00 14.7 29 Sur 52 Sur 0 -- -- 36
2019-02-15 05:00:00 15 29 Sur 56 Sur 0 -- -- 36
2019-02-15 04:00:00 15.2 33 Sur 63 Sur 0 -- -- 36
2019-02-15 03:00:00 15.3 36 Sur 59 Sur 0 -- -- 35
2019-02-15 02:00:00 15.7 33 Sur 54 Sur 0 -- -- 34
2019-02-15 01:00:00 15.6 33 Sur 54 Sur 0 -- -- 33
2019-02-15 00:00:00 15.6 30 Sur 57 Sur 0 -- -- 33
2019-02-14 23:00:00 15.6 26 Sur 48 Sur 0 -- -- 32
2019-02-14 22:00:00 15.7 20 Sur 49 Sur 0 -- -- 31
2019-02-14 21:00:00 15.8 18 Sur 33 Sur 0 -- -- 29
2019-02-14 20:00:00 15.6 18 Sur 28 Sur 0 -- -- 31
2019-02-14 19:00:00 16 13 Sur 19 Sur 0 -- -- 31
2019-02-14 18:00:00 19.7 9 Sur 26 Sur 0 -- -- 28
2019-02-14 17:00:00 20.7 11 Sur 36 Sur 0 -- -- 28
2019-02-14 16:00:00 21.7 15 Sur 36 Sur 0 -- -- 28
2019-02-14 15:00:00 21.5 21 Sur 37 Sur 0 -- -- 29
2019-02-14 14:00:00 20.9 22 Sur 37 Sur 0 -- -- 29
2019-02-14 13:00:00 19.8 21 Sur 40 Sur 0 -- -- 32
2019-02-14 12:00:00 18.5 26 Sur 55 Sudoeste 0 -- -- 36
2019-02-14 11:00:00 17.8 21 Sur 42 Sur 0 -- -- 36
2019-02-14 10:00:00 16.3 22 Sur 50 Sur 0 -- -- 40
2019-02-14 09:00:00 14.6 26 Sur 50 Sur 0 -- -- 43
2019-02-14 08:00:00 13.8 23 Sur 52 Sur 0 -- -- 46
2019-02-14 07:00:00 13.8 20 Sur 40 Sur 0 -- -- 47
2019-02-14 06:00:00 13.4 19 Sur 39 Sur 0 -- -- 48
2019-02-14 05:00:00 13.7 20 Sur 36 Sur 0 -- -- 47
2019-02-14 04:00:00 13.8 23 Sur 37 Sudoeste 0 -- -- 46
2019-02-14 03:00:00 13.1 15 Sur 28 Sur 0 -- -- 51
2019-02-14 02:00:00 12.6 17 Sur 29 Sur 0 -- -- 55
2019-02-14 01:00:00 12.1 12 Sudeste 32 Sur 0 -- -- 58
2019-02-14 00:00:00 11.4 4 Sur 9 Sur 0 -- -- 63
2019-02-13 23:00:00 9.4 7 Sur 12 Sur 0 -- -- 76
2019-02-13 22:00:00 9.1 3 Sur 14 Sur 0 -- -- 80
2019-02-13 21:00:00 8 12 Sur 17 Sur 0 -- -- 87
2019-02-13 20:00:00 9 11 Sur 13 Sur 0 -- -- 83
2019-02-13 19:00:00 10.6 5 Sur 13 Noroeste 0 -- -- 73
2019-02-13 18:00:00 12.5 9 Noroeste 19 Nordeste 0 -- -- 67
2019-02-13 17:00:00 13.3 11 Nordeste 21 Nordeste 0 -- -- 62
2019-02-13 16:00:00 13.7 11 Nordeste 22 Norte 0 -- -- 69
2019-02-13 15:00:00 13.4 11 Nordeste 17 Nordeste 0 -- -- 72
2019-02-13 14:00:00 12.5 13 Nordeste 18 Nordeste 0 -- -- 72
2019-02-13 13:00:00 11.7 9 Nordeste 13 Nordeste 0 -- -- 73
2019-02-13 12:00:00 11.1 5 Noroeste 8 Noroeste 0 -- -- 70
2019-02-13 11:00:00 10.9 5 Sur 12 Sur 0 -- -- 79
2019-02-13 10:00:00 8 10 Sur 15 Sur 0 -- -- 97
2019-02-13 09:00:00 4.9 12 Sur 17 Sur 0 -- -- 99
2019-02-13 08:00:00 3.8 14 Sur 18 Sur 0 -- -- 99
2019-02-13 07:00:00 4 13 Sur 18 Sur 0 -- -- 98
2019-02-13 06:00:00 4 16 Sur 19 Sur 0 -- -- 98
2019-02-13 05:00:00 4.2 15 Sur 18 Sur 0 -- -- 98
2019-02-13 04:00:00 4.5 13 Sur 16 Sur 0 -- -- 98
2019-02-13 03:00:00 4.8 14 Sur 17 Sur 0 -- -- 97
2019-02-13 02:00:00 5 14 Sur 16 Sur 0 -- -- 96
2019-02-13 01:00:00 5.2 13 Sur 15 Sur 0 -- -- 96
2019-02-13 00:00:00 5.7 12 Sur 16 Sur 0 -- -- 95
2019-02-12 23:00:00 6.2 13 Sur 15 Sur 0 -- -- 93
2019-02-12 22:00:00 6.7 12 Sur 14 Sur 0 -- -- 92
2019-02-12 21:00:00 7.4 12 Sur 14 Sur 0 -- -- 89
2019-02-12 20:00:00 8.5 11 Sur 13 Sur 0 -- -- 83
2019-02-12 19:00:00 10.2 6 Sur 10 Este 0 -- -- 73
2019-02-12 18:00:00 12.7 5 Nordeste 17 Este 0 -- -- 66
2019-02-12 17:00:00 13 9 Este 21 Nordeste 0 -- -- 66
2019-02-12 16:00:00 12.7 15 Nordeste 27 Nordeste 0 -- -- 66
2019-02-12 15:00:00 12.7 15 Nordeste 23 Norte 0 -- -- 66
2019-02-12 14:00:00 13.2 11 Nordeste 16 Nordeste 0 -- -- 67
2019-02-12 13:00:00 12.3 12 Nordeste 17 Nordeste 0 -- -- 71
2019-02-12 12:00:00 11.1 3 Norte 8 Norte 0 -- -- 79
2019-02-12 11:00:00 10.7 5 Sur 15 Sur 0 -- -- 96
2019-02-12 10:00:00 8.4 11 Sur 16 Sur 0 -- -- 99
2019-02-12 09:00:00 5.7 14 Sur 17 Sur 0 -- -- 99
2019-02-12 08:00:00 5 14 Sur 17 Sur 0.1 -- -- 99
2019-02-12 07:00:00 5.2 14 Sur 17 Sur 0 -- -- 99
2019-02-12 06:00:00 5.6 13 Sur 16 Sur 0 -- -- 99
2019-02-12 05:00:00 6 12 Sur 14 Sudoeste 0 -- -- 99
2019-02-12 04:00:00 6.1 13 Sur 15 Sur 0 -- -- 99
2019-02-12 03:00:00 6.4 12 Sur 14 Sur 0 -- -- 99
2019-02-12 02:00:00 6.9 12 Sur 15 Sur 0 -- -- 98
2019-02-12 01:00:00 7.5 10 Sur 12 Sur 0.1 -- -- 98
2019-02-12 00:00:00 7.6 10 Sur 12 Sur 0 -- -- 97
2019-02-11 23:00:00 7.8 9 Sur 12 Sur 0 -- -- 96
2019-02-11 22:00:00 8.3 9 Sudoeste 12 Sudoeste 0 -- -- 96
2019-02-11 21:00:00 8.3 9 Sur 10 Sur 0 -- -- 93
2019-02-11 20:00:00 8.8 8 Sur 11 Sur 0 -- -- 91
2019-02-11 19:00:00 10.1 6 Sur 29 Noroeste 0.1 -- -- 86
2019-02-11 18:00:00 11.1 9 Noroeste 18 Noroeste 0 -- -- 79
2019-02-11 17:00:00 11 9 Noroeste 24 Noroeste 0 -- -- 79
2019-02-11 16:00:00 10.8 13 Noroeste 38 Noroeste 0 -- -- 82
2019-02-11 15:00:00 13.6 13 Noroeste 26 Noroeste 0 -- -- 75
2019-02-11 14:00:00 12.2 9 Noroeste 26 Noroeste 0 -- -- 79
2019-02-11 13:00:00 10.9 9 Noroeste 31 Noroeste 0.3 -- -- 85
2019-02-11 12:00:00 10 9 Oeste 30 Noroeste 0.8 -- -- 89
2019-02-11 11:00:00 9.9 6 Oeste 31 Noroeste 0.9 -- -- 91
2019-02-11 10:00:00 9.7 6 Oeste 19 Norte 0.9 -- -- 87
2019-02-11 09:00:00 9.5 8 Oeste 30 Oeste 0 -- -- 86
2019-02-11 08:00:00 9.1 6 Oeste 32 Noroeste 0.6 -- -- 88
2019-02-11 07:00:00 9.5 10 Noroeste 29 Noroeste 0 -- -- 86
2019-02-11 06:00:00 9.1 4 Sudoeste 33 Oeste 0 -- -- 87
2019-02-11 05:00:00 9.4 14 Noroeste 43 Noroeste 0.9 -- -- 86
2019-02-11 04:00:00 10.4 23 Noroeste 59 Noroeste 0 -- -- 76
2019-02-11 03:00:00 10.2 12 Noroeste 32 Noroeste 0 -- -- 79
2019-02-11 02:00:00 10.2 9 Oeste 30 Oeste 0.8 -- -- 78
2019-02-11 01:00:00 10.7 6 Oeste 22 Oeste 0 -- -- 71
2019-02-11 00:00:00 10.6 5 Oeste 18 Oeste 0 -- -- 71
2019-02-10 23:00:00 10.4 5 Oeste 17 Oeste 0 -- -- 73
2019-02-10 22:00:00 10.9 5 Oeste 23 Oeste 0 -- -- 71
2019-02-10 21:00:00 10.9 6 Oeste 34 Noroeste 0 -- -- 74
2019-02-10 20:00:00 11 10 Noroeste 28 Noroeste 0 -- -- 74
2019-02-10 19:00:00 11 15 Noroeste 27 Noroeste 0 -- -- 76
2019-02-10 18:00:00 11.1 8 Oeste 24 Noroeste 0 -- -- 79
2019-02-10 17:00:00 10.6 9 Oeste 47 Noroeste 0.5 -- -- 87
2019-02-10 16:00:00 10.9 21 Noroeste 47 Noroeste 0.3 -- -- 83
2019-02-10 15:00:00 10.8 29 Noroeste 63 Noroeste 0.3 -- -- 83
2019-02-10 14:00:00 11.5 7 Oeste 31 Noroeste 0.8 -- -- 92
2019-02-10 13:00:00 11.2 13 Noroeste 37 Noroeste 0.5 -- -- 91
2019-02-10 12:00:00 11.2 16 Noroeste 74 Noroeste 0.6 -- -- 88
2019-02-10 11:00:00 11.9 43 Noroeste 69 Noroeste 0.7 -- -- 88
2019-02-10 10:00:00 15.5 20 Sudoeste 65 Sudoeste 0 -- -- 55
2019-02-10 09:00:00 15 41 Sur 71 Sudoeste 0 -- -- 56
2019-02-10 08:00:00 14.4 43 Sur 72 Sudoeste 0 -- -- 56
2019-02-10 07:00:00 14.6 40 Sudoeste 64 Sudoeste 0 -- -- 53
2019-02-10 06:00:00 14.6 33 Sur 71 Sur 0 -- -- 52
2019-02-10 05:00:00 14.5 33 Sur 66 Sur 0 -- -- 50
2019-02-10 04:00:00 14.5 40 Sur 70 Sudoeste 0 -- -- 50
2019-02-10 03:00:00 14.5 36 Sur 68 Sudoeste 0 -- -- 49
2019-02-10 02:00:00 15.2 32 Sur 70 Sudoeste 0 -- -- 47
2019-02-10 01:00:00 15.5 40 Sur 64 Sur 0 -- -- 47
2019-02-10 00:00:00 15.8 11 Sur 43 Sur 0 -- -- 48
2019-02-09 23:00:00 15.9 17 Sur 51 Sudoeste 0 -- -- 47
2019-02-09 22:00:00 16.2 9 Sudoeste 37 Sur 0 -- -- 47
2019-02-09 21:00:00 15.8 26 Sur 47 Sur 0 -- -- 49
2019-02-09 20:00:00 15.9 12 Sur 39 Sur 0 -- -- 48
2019-02-09 19:00:00 16 17 Sudoeste 37 Sur 0 -- -- 47
2019-02-09 18:00:00 16.4 12 Sudoeste 32 Sudoeste 0 -- -- 47
2019-02-09 17:00:00 17.4 16 Sudoeste 32 Sudoeste 0 -- -- 46
2019-02-09 16:00:00 19.8 7 Sudoeste 22 Sudoeste 0 -- -- 44
2019-02-09 15:00:00 18.3 12 Sudoeste 31 Sudoeste 0 -- -- 46
2019-02-09 14:00:00 19.2 20 Sur 34 Sudoeste 0 -- -- 46
2019-02-09 13:00:00 18.3 7 Sur 24 Sudoeste 0 -- -- 50
2019-02-09 12:00:00 17 15 Sur 23 Sur 0 -- -- 54
2019-02-09 11:00:00 14.1 14 Sur 29 Sur 0 -- -- 62
2019-02-09 10:00:00 11.5 13 Sur 17 Sur 0 -- -- 72
2019-02-09 09:00:00 10.1 12 Sur 19 Sur 0 -- -- 73
2019-02-09 08:00:00 9.9 13 Sur 17 Sur 0 -- -- 73
2019-02-09 07:00:00 10.2 12 Sur 15 Sudoeste 0 -- -- 71
2019-02-09 06:00:00 11.2 8 Sur 15 Sur 0 -- -- 67
2019-02-09 05:00:00 11.7 9 Sur 13 Sur 0 -- -- 67
2019-02-09 04:00:00 12.5 7 Sudoeste 11 Sudoeste 0 -- -- 62
2019-02-09 03:00:00 12.3 9 Sur 16 Sur 0 -- -- 63
2019-02-09 02:00:00 12.2 13 Sur 20 Sur 0 -- -- 66
2019-02-09 01:00:00 10.9 12 Sur 17 Sur 0 -- -- 72
2019-02-09 00:00:00 10.6 10 Sur 14 Sur 0 -- -- 73
2019-02-08 23:00:00 11.3 9 Sudoeste 15 Sur 0 -- -- 73
2019-02-08 22:00:00 10.8 8 Sudoeste 14 Sudoeste 0 -- -- 85
2019-02-08 21:00:00 9.8 9 Sur 23 Sur 0 -- -- 93
2019-02-08 20:00:00 10 12 Sur 16 Sur 0 -- -- 92
2019-02-08 19:00:00 10.7 6 Sur 18 Noroeste 0 -- -- 91
2019-02-08 18:00:00 11.7 8 Noroeste 21 Noroeste 0 -- -- 88
2019-02-08 17:00:00 13 6 Noroeste 15 Norte 0 -- -- 81
2019-02-08 16:00:00 14.8 5 Noroeste 18 Noroeste 0 -- -- 70
2019-02-08 15:00:00 16.1 10 Noroeste 23 Noroeste 0 -- -- 72
2019-02-08 14:00:00 15.3 14 Noroeste 20 Noroeste 0 -- -- 75
2019-02-08 13:00:00 13.5 12 Norte 15 Noroeste 0 -- -- 76
2019-02-08 12:00:00 12.8 5 Norte 10 Norte 0 -- -- 72
2019-02-08 11:00:00 12.9 7 Nordeste 11 Nordeste 0 -- -- 76
2019-02-08 10:00:00 12 0 Calma 13 Sudoeste 0 -- -- 78
2019-02-08 09:00:00 7.6 10 Sur 14 Sur 0 -- -- 92
2019-02-08 08:00:00 6.6 9 Sur 23 Sur 0 -- -- 93
2019-02-08 07:00:00 5.9 7 Sur 16 Sur 0 -- -- 93
2019-02-08 06:00:00 6.3 13 Sur 21 Sur 0 -- -- 93
2019-02-08 05:00:00 6.3 14 Sur 19 Sur 0 -- -- 93
2019-02-08 04:00:00 6.3 13 Sur 18 Sur 0 -- -- 93
2019-02-08 03:00:00 6.4 13 Sur 17 Sur 0 -- -- 93
2019-02-08 02:00:00 6.6 13 Sur 15 Sur 0 -- -- 93
2019-02-08 01:00:00 6.8 11 Sur 15 Sur 0 -- -- 93
2019-02-08 00:00:00 6.6 10 Sur 14 Sur 0 -- -- 93
2019-02-07 23:00:00 7 10 Sur 14 Sur 0 -- -- 92
2019-02-07 22:00:00 7.3 11 Sur 13 Sur 0 -- -- 91
2019-02-07 21:00:00 7.8 10 Sur 12 Sur 0 -- -- 89
2019-02-07 20:00:00 8.8 9 Sur 13 Sudoeste 0 -- -- 85
2019-02-07 19:00:00 10 5 Sur 6 Sur 0 -- -- 76
2019-02-07 18:00:00 12 0 Calma 9 Noroeste 0 -- -- 71
2019-02-07 17:00:00 13 0 Calma 22 Noroeste 0 -- -- 68
2019-02-07 16:00:00 12.6 5 Noroeste 28 Noroeste 0 -- -- 68
2019-02-07 15:00:00 12.5 21 Noroeste 34 Noroeste 0 -- -- 71
2019-02-07 14:00:00 12.8 21 Noroeste 34 Oeste 0 -- -- 75
2019-02-07 13:00:00 12 17 Noroeste 36 Noroeste 0 -- -- 87
2019-02-07 12:00:00 12.3 18 Noroeste 40 Noroeste 0 -- -- 89
2019-02-07 11:00:00 11.6 3 Oeste 14 Noroeste 0 -- -- 86
2019-02-07 10:00:00 10.1 8 Sudoeste 14 Sudoeste 0 -- -- 91
2019-02-07 09:00:00 9.4 9 Sudoeste 14 Sudoeste 0 -- -- 94
2019-02-07 08:00:00 9.2 7 Sur 14 Sur 0 -- -- 96
2019-02-07 07:00:00 8.9 11 Sur 14 Sur 0 -- -- 97
2019-02-07 06:00:00 8.5 13 Sur 17 Sur 0 -- -- 98
2019-02-07 05:00:00 8.7 14 Sur 39 Sur 0 -- -- 98
2019-02-07 04:00:00 8.9 13 Sur 15 Sur 0 -- -- 98
2019-02-07 03:00:00 9.1 12 Sur 16 Sudoeste 0 -- -- 98
2019-02-07 02:00:00 8.9 13 Sur 15 Sudoeste 0 -- -- 98
2019-02-07 01:00:00 8.9 11 Sur 15 Sur 0 -- -- 97
2019-02-07 00:00:00 9.3 8 Sudoeste 12 Sudoeste 0 -- -- 97
2019-02-06 23:00:00 9.6 6 Sudoeste 11 Sudoeste 0 -- -- 96
2019-02-06 22:00:00 10.3 7 Sur 10 Sudoeste 0 -- -- 95
2019-02-06 21:00:00 11 6 Sudoeste 12 Sur 0 -- -- 93
2019-02-06 20:00:00 11.7 6 Sudoeste 11 Noroeste 0 -- -- 92
2019-02-06 19:00:00 12.6 0 Calma 14 Noroeste 0 -- -- 87
2019-02-06 18:00:00 14.1 0 Calma 9 Este 0 -- -- 77
2019-02-06 17:00:00 15.7 5 Este 17 Sudeste 0 -- -- 76
2019-02-06 16:00:00 16.8 8 Este 18 Este 0 -- -- 71
2019-02-06 15:00:00 16.2 10 Este 24 Nordeste 0 -- -- 73
2019-02-06 14:00:00 15 12 Nordeste 24 Nordeste 0 -- -- 75
2019-02-06 13:00:00 14.4 13 Nordeste 19 Nordeste 0 -- -- 73
2019-02-06 12:00:00 16.1 0 Calma 10 Nordeste 0 -- -- 72
2019-02-06 11:00:00 14.8 0 Calma 13 Sur 0 -- -- 75
2019-02-06 10:00:00 12.9 9 Sur 13 Sur 0 -- -- 95
2019-02-06 09:00:00 11 9 Sur 13 Sudoeste 0 -- -- 96
2019-02-06 08:00:00 10.8 9 Sudoeste 14 Sudoeste 0 -- -- 96
2019-02-06 07:00:00 10.6 7 Sur 9 Sur 0 -- -- 96
2019-02-06 06:00:00 10.6 5 Sur 9 Sur 0 -- -- 96
2019-02-06 05:00:00 10.5 8 Sur 10 Sur 0 -- -- 96
2019-02-06 04:00:00 10.4 8 Sur 12 Sur 0 -- -- 96
2019-02-06 03:00:00 10.3 10 Sur 30 Sur 0 -- -- 96
2019-02-06 02:00:00 10.2 8 Sur 14 Sudoeste 0 -- -- 96
2019-02-06 01:00:00 10.3 11 Sur 12 Sur 0 -- -- 95
2019-02-06 00:00:00 10.7 10 Sur 12 Sur 0 -- -- 95
2019-02-05 23:00:00 11.1 8 Sur 10 Sur 0 -- -- 93
2019-02-05 22:00:00 11.8 8 Sur 10 Sudoeste 0 -- -- 93
2019-02-05 21:00:00 12.1 7 Sur 9 Sur 0 -- -- 92
2019-02-05 20:00:00 12.2 0 Calma 7 Sudeste 0 -- -- 90
2019-02-05 19:00:00 12.3 8 Este 14 Este 0 -- -- 89
2019-02-05 18:00:00 13.2 3 Sur 7 Sur 0 -- -- 86
2019-02-05 17:00:00 13.4 5 Sur 8 Sur 0 -- -- 86
2019-02-05 16:00:00 13.7 0 Calma 10 Noroeste 0 -- -- 88
2019-02-05 15:00:00 13.2 9 Norte 20 Norte 0 -- -- 84
2019-02-05 14:00:00 14.7 3 Sur 8 Sur 0 -- -- 79
2019-02-05 13:00:00 13.5 0 Calma 11 Noroeste 0 -- -- 81
2019-02-05 12:00:00 14.1 8 Noroeste 30 Noroeste 0 -- -- 72
2019-02-05 11:00:00 13.7 0 Calma 12 Oeste 0 -- -- 76
2019-02-05 10:00:00 12.6 6 Sur 10 Sur 0 -- -- 80
2019-02-05 09:00:00 12.3 6 Sur 9 Sur 0 -- -- 79
2019-02-05 08:00:00 12.9 3 Sur 18 Oeste 0 -- -- 74
2019-02-05 07:00:00 13.2 7 Oeste 21 Oeste 0 -- -- 73
2019-02-05 06:00:00 12.8 3 Oeste 14 Noroeste 0 -- -- 76
2019-02-05 05:00:00 13.2 6 Oeste 18 Sudoeste 0 -- -- 74
2019-02-05 04:00:00 13 5 Oeste 17 Oeste 0 -- -- 79
2019-02-05 03:00:00 12.6 4 Oeste 25 Oeste 0 -- -- 82
2019-02-05 02:00:00 12 5 Oeste 25 Noroeste 0 -- -- 89
2019-02-05 01:00:00 10.2 9 Sur 13 Sur 0 -- -- 93
2019-02-05 00:00:00 9.8 7 Sur 15 Sur 0 -- -- 92
2019-02-04 23:00:00 9.9 9 Sur 16 Sur 0.2 -- -- 90
2019-02-04 22:00:00 10.7 4 Sur 11 Sur 0 -- -- 88
2019-02-04 21:00:00 10.1 9 Sur 15 Sur 0.1 -- -- 90
2019-02-04 20:00:00 9.6 7 Sur 12 Sur 0 -- -- 90
2019-02-04 19:00:00 9.5 7 Sur 13 Sur 0.2 -- -- 86
2019-02-04 18:00:00 10.6 7 Sur 10 Sur 0.5 -- -- 77
2019-02-04 17:00:00 11.6 4 Sur 7 Oeste 0 -- -- 69
2019-02-04 16:00:00 11.7 0 Calma 9 Norte 0 -- -- 64
2019-02-04 15:00:00 12.1 0 Calma -- -- 0 -- -- 66
2019-02-04 14:00:00 12.4 0 Calma -- -- 0 -- -- 62
2019-02-04 13:00:00 11 0 Calma 14 Noroeste 0 -- -- 60
2019-02-04 12:00:00 9.8 6 Sur 16 Sudoeste 0 -- -- 69
2019-02-04 11:00:00 8.4 9 Sur 15 Sur 0 -- -- 89
2019-02-04 10:00:00 5.9 12 Sur 17 Sur 0 -- -- 99
2019-02-04 09:00:00 3.6 15 Sur 19 Sur 0 -- -- 99
2019-02-04 08:00:00 3.2 15 Sur 19 Sur 0 -- -- 99
2019-02-04 07:00:00 3.3 12 Sur 19 Sudoeste 0 -- -- 99
2019-02-04 06:00:00 3.4 13 Sur 19 Sur 0 -- -- 99
2019-02-04 05:00:00 3.4 12 Sur 17 Sudoeste 0 -- -- 99
2019-02-04 04:00:00 3.5 10 Sur 17 Sur 0 -- -- 99
2019-02-04 03:00:00 3.5 12 Sur 15 Sur 0 -- -- 99
2019-02-04 02:00:00 3.8 12 Sur 15 Sur 0 -- -- 98
2019-02-04 01:00:00 4.3 10 Sur 17 Sur 0 -- -- 97
2019-02-04 00:00:00 4.9 12 Sur 17 Sudoeste 1.1 -- -- 96
2019-02-03 23:00:00 4.8 9 Sur 14 Sur 0.1 -- -- 96
2019-02-03 22:00:00 4.7 10 Sur 13 Sur 0 -- -- 94
2019-02-03 21:00:00 5.3 9 Sur 14 Sur 0 -- -- 93
2019-02-03 20:00:00 6 9 Sur 13 Sur 0 -- -- 91
2019-02-03 19:00:00 6.1 8 Sur 14 Sur 0 -- -- 89
2019-02-03 18:00:00 7.1 8 Sur 15 Sur 0 -- -- 85
2019-02-03 17:00:00 8.2 10 Sur 17 Sudoeste 0 -- -- 81
2019-02-03 16:00:00 8.8 10 Sur 15 Sur 0.1 -- -- 82
2019-02-03 15:00:00 8 0 Calma 23 Nordeste 0.9 -- -- 73
2019-02-03 14:00:00 11.1 4 Nordeste 21 Este 0 -- -- 62
2019-02-03 13:00:00 9.5 16 Este 26 Este 0 -- -- 69
2019-02-03 12:00:00 8.6 10 Sudeste 27 Este 0 -- -- 69
2019-02-03 11:00:00 9.8 6 Este 28 Nordeste 0 -- -- 63
2019-02-03 10:00:00 9.3 20 Nordeste 66 Noroeste 0 -- -- 63
2019-02-03 09:00:00 8.8 43 Noroeste 57 Noroeste 0 -- -- 70
2019-02-03 08:00:00 8.7 41 Norte 65 Nordeste 0 -- -- 66
2019-02-03 07:00:00 7.5 28 Noroeste 57 Noroeste 0 -- -- 74
2019-02-03 06:00:00 7.9 40 Noroeste 59 Noroeste 0 -- -- 70
2019-02-03 05:00:00 7.8 30 Norte 87 Norte 0 -- -- 70
2019-02-03 04:00:00 8.8 30 Norte 67 Norte 0 -- -- 63
2019-02-03 03:00:00 8.8 39 Norte 67 Norte 0 -- -- 67
2019-02-03 02:00:00 7 39 Norte 88 Norte 0 -- -- 75
2019-02-03 01:00:00 9.2 35 Norte 61 Noroeste 0 -- -- 58
2019-02-03 00:00:00 9.1 33 Norte 60 Noroeste 0 -- -- 62
2019-02-02 23:00:00 9 41 Norte 77 Norte 0.3 -- -- 69
2019-02-02 22:00:00 8.7 30 Norte 60 Noroeste 0 -- -- 69
2019-02-02 21:00:00 8.3 42 Noroeste 91 Noroeste 0 -- -- 69
2019-02-02 20:00:00 8.3 38 Noroeste 77 Noroeste 0 -- -- 73
2019-02-02 19:00:00 7.9 62 Noroeste 93 Noroeste 0 -- -- 72
2019-02-02 18:00:00 8 44 Norte 98 Norte 0 -- -- 80
2019-02-02 17:00:00 8.8 51 Norte 92 Noroeste 0 -- -- 68
2019-02-02 16:00:00 8.4 43 Norte 63 Noroeste 0 -- -- 67
2019-02-02 15:00:00 10.1 50 Noroeste 71 Noroeste 0 -- -- 61
2019-02-02 14:00:00 10.6 52 Noroeste 81 Noroeste 0 -- -- 59
2019-02-02 13:00:00 10.5 55 Noroeste 89 Noroeste 0.1 -- -- 66
2019-02-02 12:00:00 10.1 54 Noroeste 97 Noroeste 0.1 -- -- 72
2019-02-02 11:00:00 8.5 75 Noroeste 100 Noroeste 0 -- -- 80
2019-02-02 10:00:00 8.2 62 Noroeste 87 Noroeste 0.3 -- -- 86
2019-02-02 09:00:00 9.8 59 Noroeste 91 Noroeste 0 -- -- 76
2019-02-02 08:00:00 9.2 67 Noroeste 91 Noroeste 0 -- -- 83
2019-02-02 07:00:00 10 59 Noroeste 93 Noroeste 0 -- -- 84
2019-02-02 06:00:00 9.3 62 Noroeste 84 Noroeste 0.9 -- -- 89
2019-02-02 05:00:00 9.1 42 Noroeste 60 Noroeste 1 -- -- 90
2019-02-02 04:00:00 8.3 7 Oeste 34 Sudoeste 1.5 -- -- 82
2019-02-02 03:00:00 8.8 10 Sudoeste 44 Oeste 1.8 -- -- 84
2019-02-02 02:00:00 9.2 13 Oeste 47 Noroeste 0 -- -- 77
2019-02-02 01:00:00 8.4 12 Sudoeste 34 Sudoeste 0.8 -- -- 80
2019-02-02 00:00:00 8.3 9 Sudoeste 25 Oeste 0 -- -- 78
2019-02-01 23:00:00 8.8 5 Oeste 30 Noroeste 0 -- -- 84
2019-02-01 22:00:00 7.3 11 Sur 17 Sur 0.1 -- -- 91
2019-02-01 21:00:00 7.5 0 Calma 18 Sur 0 -- -- 87
2019-02-01 20:00:00 7.3 10 Sur 27 Sur 0 -- -- 87
2019-02-01 19:00:00 7.2 15 Sur 27 Sudoeste 0 -- -- 90
2019-02-01 18:00:00 7.3 10 Sur -- -- 1.8 -- -- 89
2019-02-01 17:00:00 10.1 5 Sudeste 31 Sudoeste 0.4 -- -- 86
2019-02-01 16:00:00 10.2 10 Sur 36 Sudoeste 1.3 -- -- 78
2019-02-01 15:00:00 13.5 12 Sudoeste 48 Sudoeste 0 -- -- 50
2019-02-01 14:00:00 13.9 15 Sudoeste 50 Sudoeste 0 -- -- 49
2019-02-01 13:00:00 15.2 12 Sudoeste 40 Sur 0 -- -- 50
2019-02-01 12:00:00 13.1 15 Sudoeste 46 Sudoeste 0 -- -- 50
2019-02-01 11:00:00 14 20 Sudoeste 52 Sudoeste 0 -- -- 50
2019-02-01 10:00:00 13.1 27 Sudoeste 55 Sudoeste 0 -- -- 53
2019-02-01 09:00:00 11.6 33 Sudoeste 57 Sudoeste 0 -- -- 60
2019-02-01 08:00:00 10.9 28 Sudoeste 46 Sudoeste 0 -- -- 72
2019-02-01 07:00:00 8 0 Calma 15 Sur 0 -- -- 99
2019-02-01 06:00:00 8.4 0 Calma 11 Sudeste 0 -- -- 99
2019-02-01 05:00:00 9.3 0 Calma 17 Sur 0 -- -- 99
2019-02-01 04:00:00 9.9 10 Sur 14 Sur 0.7 -- -- 99
2019-02-01 03:00:00 10.2 8 Sur 12 Sur 1.1 -- -- 99
2019-02-01 02:00:00 10.6 8 Sur 11 Sur 0 -- -- 99
2019-02-01 01:00:00 10.6 8 Sur 12 Sudoeste 0.1 -- -- 98
2019-02-01 00:00:00 10.6 7 Sur 14 Sudoeste 0 -- -- 97
2019-01-31 23:00:00 11.1 9 Sur 13 Sur 0.5 -- -- 97
2019-01-31 22:00:00 11.1 3 Sur 18 Sudoeste 1.9 -- -- 96
2019-01-31 21:00:00 11.5 7 Sur 31 Noroeste 4 -- -- 96
2019-01-31 20:00:00 11.3 13 Noroeste 45 Noroeste 4.3 -- -- 97
2019-01-31 19:00:00 11.3 24 Noroeste 57 Noroeste 8.8 -- -- 97
2019-01-31 18:00:00 13.3 4 Norte 9 Noroeste 1.8 -- -- 93
2019-01-31 17:00:00 13.6 0 Calma 14 Nordeste 0 -- -- 91
2019-01-31 16:00:00 14.8 9 Nordeste 29 Sudoeste 0 -- -- 81
2019-01-31 15:00:00 18.2 11 Sudoeste 40 Sudoeste 0 -- -- 62
2019-01-31 14:00:00 17.8 12 Sudoeste 38 Sudoeste 0 -- -- 63
2019-01-31 13:00:00 16.6 17 Sudoeste 41 Sudoeste 0 -- -- 70
2019-01-31 12:00:00 15.7 22 Sudoeste 37 Sudoeste 0 -- -- 74
2019-01-31 11:00:00 14.7 20 Sudoeste 41 Sur 0 -- -- 76
2019-01-31 10:00:00 13.2 22 Sudoeste 36 Sur 0.1 -- -- 88
2019-01-31 09:00:00 12.6 19 Sur 39 Sur 1.3 -- -- 94
2019-01-31 08:00:00 11.8 20 Sur 36 Sudoeste 1.9 -- -- 93
2019-01-31 07:00:00 11.8 26 Sur 44 Sudoeste 2.1 -- -- 90
2019-01-31 06:00:00 12.1 28 Sur 48 Sudoeste 0.1 -- -- 86
2019-01-31 05:00:00 10.7 24 Sur 48 Sur 0.8 -- -- 88
2019-01-31 04:00:00 10.8 23 Sur 49 Sur 0.5 -- -- 89
2019-01-31 03:00:00 9.6 31 Sur 57 Sur 0.6 -- -- 89
2019-01-31 02:00:00 8.8 43 Sur 62 Sur 1 -- -- 90
2019-01-31 01:00:00 8.6 31 Sur 52 Sur 0.7 -- -- 90
2019-01-31 00:00:00 8.8 26 Sur 45 Sur 1.1 -- -- 89
2019-01-30 23:00:00 9 23 Sur 39 Sur 1.3 -- -- 83
2019-01-30 22:00:00 11 21 Sur 40 Sur 0 -- -- 68
2019-01-30 21:00:00 11.1 17 Sur 31 Sudoeste 0 -- -- 62
2019-01-30 20:00:00 11.3 9 Sudoeste 17 Sudoeste 0 -- -- 57
2019-01-30 19:00:00 10.4 0 Calma 8 Sudoeste 0 -- -- 60
2019-01-30 18:00:00 10.8 3 Sudoeste 9 Oeste 0 -- -- 60
2019-01-30 17:00:00 11.4 0 Calma 12 Sudoeste 0 -- -- 59
2019-01-30 16:00:00 12.7 8 Sur 14 Sur 0 -- -- 59
2019-01-30 15:00:00 12.4 0 Calma 17 Sudoeste 0 -- -- 60
2019-01-30 14:00:00 12.8 4 Oeste 24 Oeste 0 -- -- 58
2019-01-30 13:00:00 11.9 2 Sudoeste 23 Noroeste 0 -- -- 73
2019-01-30 12:00:00 9.8 2 Sur 30 Sudoeste 0 -- -- 80
2019-01-30 11:00:00 7.6 15 Sudoeste 26 Sudoeste 0.5 -- -- 89
2019-01-30 10:00:00 7.4 6 Oeste 32 Noroeste 3.1 -- -- 90
2019-01-30 09:00:00 7.2 8 Oeste 45 Sudoeste 2.1 -- -- 87
2019-01-30 08:00:00 7.3 9 Oeste 37 Noroeste 2.1 -- -- 87
2019-01-30 07:00:00 7.7 11 Oeste 44 Noroeste 2.2 -- -- 86
2019-01-30 06:00:00 7.3 12 Sudoeste 44 Noroeste 0.7 -- -- 82
2019-01-30 05:00:00 7.8 9 Oeste 33 Sudoeste 0.3 -- -- 84
2019-01-30 04:00:00 8.7 8 Oeste 69 Noroeste 0.5 -- -- 86
2019-01-30 03:00:00 9.1 7 Oeste 50 Noroeste 0.1 -- -- 78
2019-01-30 02:00:00 9.1 10 Oeste 70 Noroeste 0 -- -- 79
2019-01-30 01:00:00 9.7 48 Noroeste 77 Noroeste 0 -- -- 80
2019-01-30 00:00:00 9.1 54 Noroeste 80 Noroeste 0.6 -- -- 81
2019-01-29 23:00:00 9.2 37 Noroeste 102 Noroeste 0 -- -- 76
2019-01-29 22:00:00 10.4 54 Noroeste 97 Noroeste 0 -- -- 73
2019-01-29 21:00:00 10.3 42 Noroeste -- -- 0.6 -- -- 75
2019-01-29 20:00:00 10.8 35 Noroeste 94 Noroeste 1 -- -- 74
2019-01-29 19:00:00 10.2 29 Noroeste 81 Noroeste 0.4 -- -- 80
2019-01-29 18:00:00 10.4 23 Oeste -- -- 0.6 -- -- 73
2019-01-29 17:00:00 11.1 41 Noroeste 79 Noroeste 0 -- -- 75
2019-01-29 16:00:00 11.4 27 Noroeste 53 Noroeste 0.7 -- -- 83
2019-01-29 15:00:00 12 23 Sudoeste 53 Sudoeste 0.5 -- -- 74
2019-01-29 14:00:00 10.1 24 Sur 43 Sudoeste 0.8 -- -- 82
2019-01-29 13:00:00 10.5 11 Sudoeste 30 Sur 0.1 -- -- 76
2019-01-29 12:00:00 9.8 24 Sur 37 Sur 0 -- -- 80
2019-01-29 11:00:00 9.1 15 Sur 32 Sur 0.7 -- -- 91
2019-01-29 10:00:00 8.8 20 Sur 30 Sur 0.5 -- -- 91
2019-01-29 09:00:00 8.9 4 Sur 10 Sudoeste 0.1 -- -- 90
2019-01-29 08:00:00 9.3 3 Sur 9 Sur 0 -- -- 89
2019-01-29 07:00:00 9.5 0 Calma 24 Sudoeste 0 -- -- 84
2019-01-29 06:00:00 10 3 Oeste 19 Oeste 0 -- -- 86
2019-01-29 05:00:00 9.4 7 Sudoeste 19 Oeste 0.5 -- -- 88
2019-01-29 04:00:00 9.4 2 Sudoeste 28 Noroeste 0.4 -- -- 85
2019-01-29 03:00:00 9.2 2 Sudoeste 18 Oeste 1.2 -- -- 88
2019-01-29 02:00:00 10.2 3 Oeste 20 Noroeste 0.5 -- -- 83
2019-01-29 01:00:00 10 6 Oeste 41 Noroeste 0.1 -- -- 83
2019-01-29 00:00:00 10.4 19 Noroeste 44 Noroeste 0 -- -- 83
2019-01-28 23:00:00 10.3 17 Noroeste 51 Noroeste 0.1 -- -- 82
2019-01-28 22:00:00 9.3 50 Noroeste 82 Noroeste 0.8 -- -- 89
2019-01-28 21:00:00 10.2 35 Noroeste 74 Noroeste 0.9 -- -- 89
2019-01-28 20:00:00 11.6 43 Noroeste 67 Noroeste 0 -- -- 79
2019-01-28 19:00:00 10.7 33 Noroeste 66 Noroeste 0 -- -- 86
2019-01-28 18:00:00 11.3 51 Noroeste 79 Noroeste 0.2 -- -- 84
2019-01-28 17:00:00 10.8 53 Noroeste 73 Noroeste 0.8 -- -- 84
2019-01-28 16:00:00 11.9 55 Noroeste 95 Noroeste 0 -- -- 78
2019-01-28 15:00:00 12 53 Noroeste 80 Noroeste 0 -- -- 75
2019-01-28 14:00:00 12.4 55 Noroeste 86 Noroeste 0.1 -- -- 76
2019-01-28 13:00:00 11.9 54 Noroeste 80 Noroeste 0.3 -- -- 78
2019-01-28 12:00:00 11.5 59 Noroeste 96 Noroeste 0.3 -- -- 78
2019-01-28 11:00:00 11.4 63 Noroeste 90 Noroeste 0 -- -- 78
2019-01-28 10:00:00 12.5 54 Noroeste 80 Noroeste 0 -- -- 75
2019-01-28 09:00:00 11.6 55 Noroeste 82 Noroeste 0.5 -- -- 87
2019-01-28 08:00:00 11.5 49 Noroeste 102 Noroeste 0.7 -- -- 88
2019-01-28 07:00:00 11.5 22 Noroeste 74 Oeste 0.2 -- -- 81
2019-01-28 06:00:00 11.4 21 Noroeste 54 Noroeste 0.2 -- -- 83
2019-01-28 05:00:00 10.5 23 Noroeste 65 Noroeste 0.6 -- -- 87
2019-01-28 04:00:00 9.4 17 Oeste 39 Noroeste 0.8 -- -- 85
2019-01-28 03:00:00 9.5 8 Oeste 33 Noroeste 0.7 -- -- 85
2019-01-28 02:00:00 9.1 10 Oeste 44 Noroeste 0.2 -- -- 84
2019-01-28 01:00:00 8.7 9 Noroeste 55 Noroeste 0.9 -- -- 86
2019-01-28 00:00:00 9.1 37 Noroeste 68 Noroeste 1 -- -- 84
2019-01-27 23:00:00 10 16 Noroeste 64 Noroeste 0.1 -- -- 80
2019-01-27 22:00:00 10.2 32 Noroeste 67 Noroeste 0 -- -- 74
2019-01-27 21:00:00 11.1 35 Noroeste 76 Noroeste 0 -- -- 74
2019-01-27 20:00:00 11.4 51 Noroeste 71 Noroeste 0 -- -- 70
2019-01-27 19:00:00 11 55 Noroeste 77 Noroeste 0 -- -- 68
2019-01-27 18:00:00 10.9 51 Noroeste 80 Noroeste 0 -- -- 76
2019-01-27 17:00:00 10.8 40 Noroeste 85 Noroeste 0 -- -- 74
2019-01-27 16:00:00 10.4 56 Noroeste 100 Noroeste 0.1 -- -- 75
2019-01-27 15:00:00 10.7 22 Noroeste 89 Noroeste 0.6 -- -- 78
2019-01-27 14:00:00 9.7 38 Noroeste 97 Noroeste 0 -- -- 77
2019-01-27 13:00:00 10.2 32 Noroeste 105 Noroeste 0.4 -- -- 76
2019-01-27 12:00:00 10.3 21 Noroeste 70 Noroeste 0.9 -- -- 81
2019-01-27 11:00:00 10.5 14 Oeste 74 Noroeste 0.7 -- -- 78
2019-01-27 10:00:00 9.3 9 Oeste 80 Noroeste 1.7 -- -- 87
2019-01-27 09:00:00 10.2 22 Noroeste 60 Noroeste 0.1 -- -- 71
2019-01-27 08:00:00 10.2 14 Oeste 48 Noroeste 0 -- -- 74
2019-01-27 07:00:00 10.3 12 Oeste 64 Noroeste 1.6 -- -- 82
2019-01-27 06:00:00 11.2 21 Noroeste 77 Noroeste 0.5 -- -- 80
2019-01-27 05:00:00 10.5 30 Noroeste 69 Noroeste 1.5 -- -- 91
2019-01-27 04:00:00 11.9 23 Noroeste 49 Noroeste 0 -- -- 82
2019-01-27 03:00:00 7.7 10 Sur 14 Sur 0 -- -- 98
2019-01-27 02:00:00 7.3 4 Sur 18 Sudoeste 0 -- -- 98
2019-01-27 01:00:00 7.1 12 Sur 19 Sur 0 -- -- 97
2019-01-27 00:00:00 7.1 6 Sur 14 Sur 0 -- -- 97
2019-01-26 23:00:00 7.5 4 Sur 13 Sur 0 -- -- 97
2019-01-26 22:00:00 7.5 8 Sur 12 Sudoeste 0 -- -- 95
2019-01-26 21:00:00 8.3 6 Sudoeste 10 Sur 0 -- -- 93
2019-01-26 20:00:00 9.2 4 Sur 9 Sur 0 -- -- 90
2019-01-26 19:00:00 10.4 0 Calma 8 Oeste 0 -- -- 83
2019-01-26 18:00:00 11.8 0 Calma -- -- 0 -- -- 79
2019-01-26 17:00:00 12.9 0 Calma 9 Nordeste 0 -- -- 71
2019-01-26 16:00:00 14.3 6 Nordeste 12 Nordeste 0 -- -- 66
2019-01-26 15:00:00 15.4 8 Nordeste 12 Nordeste 0 -- -- 66
2019-01-26 14:00:00 15.1 0 Calma 11 Sudoeste 0 -- -- 67
2019-01-26 13:00:00 14 2 Sudoeste 14 Sudoeste 0 -- -- 65
2019-01-26 12:00:00 14 0 Calma 0 Calma 0 -- -- 77
2019-01-26 11:00:00 12.2 0 Calma 8 Sur 0 -- -- 95
2019-01-26 10:00:00 10.8 0 Calma 9 Sur 0 -- -- 97
2019-01-26 09:00:00 10 4 Sur 11 Sur 0 -- -- 97
2019-01-26 08:00:00 9.9 0 Calma 9 Sur 0 -- -- 96
2019-01-26 07:00:00 10.2 0 Calma 7 Sur 0 -- -- 97
2019-01-26 06:00:00 10.3 0 Calma 11 Sur 0 -- -- 96
2019-01-26 05:00:00 10.4 0 Calma 6 Sudoeste 0 -- -- 94
2019-01-26 04:00:00 10.8 0 Calma 6 Sur 0 -- -- 93
2019-01-26 03:00:00 11.1 0 Calma 10 Oeste 0 -- -- 90
2019-01-26 02:00:00 11.7 0 Calma 22 Noroeste 0 -- -- 90
2019-01-26 01:00:00 11.6 5 Noroeste 25 Noroeste 0 -- -- 92
2019-01-26 00:00:00 11.4 13 Noroeste 30 Noroeste 0 -- -- 95
2019-01-25 23:00:00 11.3 12 Noroeste 33 Noroeste 0 -- -- 97
2019-01-25 22:00:00 11.1 17 Noroeste 35 Noroeste 0 -- -- 97
2019-01-25 21:00:00 11.1 20 Noroeste 42 Noroeste 0 -- -- 97
2019-01-25 20:00:00 11.7 27 Noroeste 49 Noroeste 0.1 -- -- 98
2019-01-25 19:00:00 11.7 28 Noroeste 48 Noroeste 0.1 -- -- 95
2019-01-25 18:00:00 11.9 27 Noroeste 54 Noroeste 0 -- -- 94
2019-01-25 17:00:00 12 30 Noroeste 47 Noroeste 0 -- -- 93
2019-01-25 16:00:00 11.7 33 Noroeste 51 Noroeste 0.8 -- -- 97
2019-01-25 15:00:00 12.2 37 Noroeste 57 Noroeste 0 -- -- 92
2019-01-25 14:00:00 12 21 Noroeste 53 Noroeste 0 -- -- 99
2019-01-25 13:00:00 11.9 39 Noroeste 60 Noroeste 0.4 -- -- 99
2019-01-25 12:00:00 11.9 29 Noroeste 52 Noroeste 0.4 -- -- 99
2019-01-25 11:00:00 11.9 37 Noroeste 59 Noroeste 0.2 -- -- 99
2019-01-25 10:00:00 11.9 37 Noroeste 60 Noroeste 0 -- -- 99
2019-01-25 09:00:00 11.3 40 Noroeste 58 Noroeste 0.2 -- -- 99
2019-01-25 08:00:00 11.4 31 Noroeste 54 Noroeste 0 -- -- 99
2019-01-25 07:00:00 11.4 42 Noroeste 57 Noroeste 0.4 -- -- 99
2019-01-25 06:00:00 11.8 42 Noroeste 66 Noroeste 0 -- -- 99
2019-01-25 05:00:00 11.7 35 Noroeste 56 Noroeste 0.1 -- -- 99
2019-01-25 04:00:00 11.4 40 Noroeste 63 Noroeste 0.2 -- -- 99
2019-01-25 03:00:00 11 41 Noroeste 70 Noroeste 0.7 -- -- 99
2019-01-25 02:00:00 8.2 4 Sudoeste 13 Sudoeste 0.1 -- -- 99
2019-01-25 01:00:00 8 8 Sur 10 Sur 0 -- -- 99
2019-01-25 00:00:00 7.7 6 Sur 10 Sur 0.1 -- -- 99
2019-01-24 23:00:00 7.6 0 Calma 12 Sur 0.2 -- -- 99
2019-01-24 22:00:00 8.1 0 Calma 10 Sur 0.6 -- -- 99
2019-01-24 21:00:00 7.5 0 Calma 9 Sur 0.2 -- -- 99
2019-01-24 20:00:00 7.8 0 Calma 6 Sur 0 -- -- 99
2019-01-24 19:00:00 7.6 0 Calma 8 Sur 0.3 -- -- 99
2019-01-24 18:00:00 7.7 0 Calma 7 Sur 0.5 -- -- 98
2019-01-24 17:00:00 8.1 0 Calma 7 Sur 0.5 -- -- 98
2019-01-24 16:00:00 8.1 3 Sur 9 Sur 0.1 -- -- 97
2019-01-24 15:00:00 8 0 Calma 11 Sur 0.1 -- -- 98
2019-01-24 14:00:00 7.8 0 Calma 10 Sudoeste 0.2 -- -- 98
2019-01-24 13:00:00 7.5 0 Calma -- -- 0 -- -- 98
2019-01-24 12:00:00 7.3 3 Sur 13 Sur 0 -- -- 99
2019-01-24 11:00:00 6.9 0 Calma 15 Sur 0 -- -- 97
2019-01-24 10:00:00 6.1 11 Sur 21 Sur 0.6 -- -- 96
2019-01-24 09:00:00 6.5 0 Calma 14 Sudeste 1.1 -- -- 95
2019-01-24 08:00:00 7.8 4 Sur 42 Norte 2.1 -- -- 91
2019-01-24 07:00:00 9.2 19 Norte 41 Noroeste 0.5 -- -- 88
2019-01-24 06:00:00 9.6 26 Norte 48 Norte 0 -- -- 82
2019-01-24 05:00:00 9.8 33 Norte 55 Norte 0 -- -- 83
2019-01-24 04:00:00 9.4 36 Norte 59 Norte 0 -- -- 81
2019-01-24 03:00:00 9.7 42 Noroeste 59 Noroeste 0 -- -- 83
2019-01-24 02:00:00 9.4 37 Norte 60 Noroeste 0.1 -- -- 83
2019-01-24 01:00:00 9.8 38 Norte 69 Noroeste 0 -- -- 85
2019-01-24 00:00:00 10.1 40 Norte 63 Noroeste 0 -- -- 82
2019-01-23 23:00:00 9.7 44 Norte 76 Noroeste 0 -- -- 83
2019-01-23 22:00:00 10.9 50 Norte 83 Noroeste 0 -- -- 83
2019-01-23 21:00:00 10.6 49 Norte 83 Norte 0.1 -- -- 90
2019-01-23 20:00:00 10.6 60 Noroeste 85 Noroeste 0.1 -- -- 89
2019-01-23 19:00:00 10.8 55 Noroeste 74 Noroeste 0 -- -- 84
2019-01-23 18:00:00 11 52 Noroeste 90 Noroeste 0.1 -- -- 83
2019-01-23 17:00:00 11.1 45 Noroeste 65 Noroeste 0 -- -- 87
2019-01-23 16:00:00 10.3 49 Noroeste 69 Noroeste 0.4 -- -- 91
2019-01-23 15:00:00 11.2 44 Noroeste 73 Noroeste 0 -- -- 86
2019-01-23 14:00:00 11.6 55 Noroeste 74 Noroeste 0 -- -- 76
2019-01-23 13:00:00 11.1 42 Noroeste 76 Noroeste 0.1 -- -- 91
2019-01-23 12:00:00 10.6 60 Noroeste 85 Noroeste 0.8 -- -- 91
2019-01-23 11:00:00 11.3 54 Noroeste 80 Noroeste 0 -- -- 91
2019-01-23 10:00:00 11.4 48 Noroeste 79 Noroeste 0 -- -- 91
2019-01-23 09:00:00 11.2 55 Noroeste 89 Noroeste 1.1 -- -- 98
2019-01-23 08:00:00 12.5 61 Noroeste 99 Noroeste 0 -- -- 89
2019-01-23 07:00:00 13.1 56 Noroeste 91 Noroeste 1.3 -- -- 90
2019-01-23 06:00:00 11 17 Oeste 45 Oeste 2.1 -- -- 91
2019-01-23 05:00:00 10 10 Sudoeste 29 Oeste 3.1 -- -- 93
2019-01-23 04:00:00 9.9 8 Sudoeste 33 Noroeste 2.9 -- -- 89
2019-01-23 03:00:00 10.6 10 Oeste 32 Oeste 0.6 -- -- 86
2019-01-23 02:00:00 10.3 10 Oeste 36 Noroeste 0.1 -- -- 83
2019-01-23 01:00:00 10.4 10 Oeste 40 Oeste 0.1 -- -- 86
2019-01-23 00:00:00 9.7 15 Noroeste 42 Noroeste 1.7 -- -- 88
2019-01-22 23:00:00 9.1 6 Oeste 42 Noroeste 3.2 -- -- 89
2019-01-22 22:00:00 9 12 Oeste 48 Oeste 0.6 -- -- 86
2019-01-22 21:00:00 8 13 Sudoeste 31 Sudoeste 1.8 -- -- 88
2019-01-22 20:00:00 8.1 7 Sudoeste 30 Sudoeste 2.5 -- -- 89
2019-01-22 19:00:00 8.6 6 Oeste 35 Noroeste 0.2 -- -- 87
2019-01-22 18:00:00 9.2 12 Oeste 30 Noroeste 1.2 -- -- 84
2019-01-22 17:00:00 9.8 6 Oeste 34 Noroeste 0.7 -- -- 84
2019-01-22 16:00:00 9.1 8 Oeste 66 Noroeste 2.1 -- -- 88
2019-01-22 15:00:00 8.8 16 Noroeste 53 Noroeste 4.3 -- -- 92
2019-01-22 14:00:00 9.1 36 Noroeste 53 Noroeste 1.9 -- -- 91
2019-01-22 13:00:00 8.6 12 Sudoeste 51 Sudoeste 3.3 -- -- 86
2019-01-22 12:00:00 9.3 15 Sudoeste 42 Sudoeste 0.8 -- -- 81
2019-01-22 11:00:00 9.2 10 Sudoeste 35 Noroeste 0.5 -- -- 77
2019-01-22 10:00:00 9.4 10 Sudoeste 24 Sudoeste 0.1 -- -- 76
2019-01-22 09:00:00 9.2 6 Sudoeste 25 Sudoeste 0.1 -- -- 76
2019-01-22 08:00:00 9 7 Sudoeste 27 Sudoeste 0 -- -- 76
2019-01-22 07:00:00 7.1 6 Sur 12 Sur 0 -- -- 93
2019-01-22 06:00:00 6.3 9 Sur 14 Sur 0 -- -- 94
2019-01-22 05:00:00 6.2 8 Sur 13 Sur 0 -- -- 95
2019-01-22 04:00:00 6 9 Sur 14 Sur 0.1 -- -- 95
2019-01-22 03:00:00 6 9 Sur 14 Sur 0 -- -- 95
2019-01-22 02:00:00 6.5 9 Sur 14 Sur 0 -- -- 94
2019-01-22 01:00:00 7.1 9 Sur 13 Sudoeste 0 -- -- 92
2019-01-22 00:00:00 7.6 9 Sudoeste 13 Sur 0.1 -- -- 89
2019-01-21 23:00:00 8.6 9 Norte 27 Noroeste 0.4 -- -- 78
2019-01-21 22:00:00 9.2 4 Oeste 18 Oeste 0 -- -- 70
2019-01-21 21:00:00 9.4 8 Oeste 26 Noroeste 0 -- -- 69
2019-01-21 20:00:00 9.7 9 Oeste 33 Noroeste 0 -- -- 70
2019-01-21 19:00:00 9.4 21 Noroeste 36 Noroeste 0 -- -- 70
2019-01-21 18:00:00 9.2 23 Noroeste 33 Noroeste 0 -- -- 70
2019-01-21 17:00:00 9.3 24 Noroeste 37 Noroeste 0 -- -- 69
2019-01-21 16:00:00 9.9 24 Noroeste 37 Noroeste 0 -- -- 69
2019-01-21 15:00:00 11.9 22 Noroeste 43 Noroeste 0 -- -- 63
2019-01-21 14:00:00 10.4 27 Noroeste 36 Noroeste 0 -- -- 70
2019-01-21 13:00:00 9.2 18 Norte 40 Norte 0 -- -- 80
2019-01-21 12:00:00 8.9 26 Norte 49 Norte 0 -- -- 78
2019-01-21 11:00:00 10.6 30 Noroeste 42 Noroeste 0 -- -- 70
2019-01-21 10:00:00 9.8 30 Noroeste 43 Norte 0 -- -- 72
2019-01-21 09:00:00 10 36 Noroeste 45 Noroeste 0 -- -- 76
2019-01-21 08:00:00 10 37 Noroeste 47 Noroeste 0 -- -- 76
2019-01-21 07:00:00 10.1 30 Norte 42 Norte 0 -- -- 77
2019-01-21 06:00:00 10 37 Noroeste 47 Noroeste 0 -- -- 80
2019-01-21 05:00:00 9.8 28 Nordeste 47 Nordeste 0 -- -- 86
2019-01-21 04:00:00 10 22 Noroeste 38 Noroeste 0 -- -- 82
2019-01-21 03:00:00 10.6 26 Norte 38 Norte 0 -- -- 78
2019-01-21 02:00:00 10.7 23 Norte 33 Noroeste 0 -- -- 77
2019-01-21 01:00:00 10.6 13 Norte 34 Nordeste 0 -- -- 80
2019-01-21 00:00:00 10.2 33 Norte 57 Norte 0.3 -- -- 86
2019-01-20 23:00:00 10.5 17 Noroeste 32 Norte 0 -- -- 80
2019-01-20 22:00:00 10.4 26 Norte 47 Noroeste 0.1 -- -- 84
2019-01-20 21:00:00 10.7 37 Norte 60 Noroeste 0 -- -- 81
2019-01-20 20:00:00 11.5 30 Norte 42 Noroeste 0 -- -- 82
2019-01-20 19:00:00 11.3 35 Noroeste 50 Noroeste 0 -- -- 77
2019-01-20 18:00:00 11.1 28 Norte 47 Noroeste 0 -- -- 81
2019-01-20 17:00:00 11.1 25 Noroeste 40 Noroeste 0.2 -- -- 84
2019-01-20 16:00:00 12.5 26 Noroeste 40 Noroeste 0 -- -- 79
2019-01-20 15:00:00 11.9 32 Noroeste 39 Noroeste 0 -- -- 78
2019-01-20 14:00:00 11.6 28 Noroeste 36 Noroeste 0 -- -- 83
2019-01-20 13:00:00 10.9 30 Norte 57 Noroeste 0.3 -- -- 87
2019-01-20 12:00:00 10.9 28 Noroeste 49 Noroeste 2 -- -- 87
2019-01-20 11:00:00 10.4 34 Noroeste 62 Noroeste 0.7 -- -- 84
2019-01-20 10:00:00 10.5 27 Noroeste 54 Noroeste 0 -- -- 79
2019-01-20 09:00:00 10.5 14 Oeste 29 Oeste 0 -- -- 79
2019-01-20 08:00:00 10.3 13 Oeste 31 Noroeste 0.1 -- -- 88
2019-01-20 07:00:00 9.8 9 Noroeste 34 Noroeste 0.7 -- -- 89
2019-01-20 06:00:00 9.3 4 Sur 12 Sur 0 -- -- 84
2019-01-20 05:00:00 9.1 5 Sur 12 Sur 0 -- -- 81
2019-01-20 04:00:00 9.5 2 Sur 11 Sur 0 -- -- 79
2019-01-20 03:00:00 9.5 0 Calma 12 Sur 0 -- -- 77
2019-01-20 02:00:00 9.8 5 Sur 11 Sur 0 -- -- 75
2019-01-20 01:00:00 9.9 3 Sur 21 Sudoeste 0 -- -- 73
2019-01-20 00:00:00 10.1 14 Sur 31 Sudoeste 0 -- -- 70
2019-01-19 23:00:00 10.5 19 Sur 36 Sudoeste 0 -- -- 69
2019-01-19 22:00:00 10.7 21 Sur 35 Sur 0 -- -- 66
2019-01-19 21:00:00 11.3 19 Sur 36 Sudoeste 0 -- -- 63
2019-01-19 20:00:00 11.2 15 Sur 29 Sur 0 -- -- 62
2019-01-19 19:00:00 11.3 19 Sur 38 Sudoeste 0 -- -- 62
2019-01-19 18:00:00 11.8 23 Sudoeste 46 Sur 0 -- -- 61
2019-01-19 17:00:00 12.3 24 Sur 49 Sudoeste 0 -- -- 58
2019-01-19 16:00:00 12.5 34 Sudoeste 51 Sudoeste 0 -- -- 56
2019-01-19 15:00:00 12.7 29 Sur 49 Sudoeste 0 -- -- 58
2019-01-19 14:00:00 12.5 18 Sur 28 Sudoeste 0 -- -- 60
2019-01-19 13:00:00 12.4 17 Sudoeste 34 Sur 0 -- -- 60
2019-01-19 12:00:00 12.3 16 Sur 32 Sur 0 -- -- 61
2019-01-19 11:00:00 10.9 17 Sur 30 Sur 0 -- -- 69
2019-01-19 10:00:00 9 17 Sur 27 Sur 0 -- -- 78
2019-01-19 09:00:00 8.2 18 Sur 29 Sur 0 -- -- 80
2019-01-19 08:00:00 8.1 14 Sur 27 Sur 0 -- -- 81
2019-01-19 07:00:00 8.3 15 Sur 26 Sur 0 -- -- 82
2019-01-19 06:00:00 8.1 16 Sur 24 Sur 0 -- -- 85
2019-01-19 05:00:00 8.4 13 Sur 18 Sur 0 -- -- 87
2019-01-19 04:00:00 9.1 6 Sur 27 Oeste 0.3 -- -- 88
2019-01-19 03:00:00 8.6 11 Sur 21 Sur 0 -- -- 91
2019-01-19 02:00:00 8.3 13 Sur 20 Sur 0.3 -- -- 91
2019-01-19 01:00:00 8 14 Sur 24 Sur 0.5 -- -- 87
2019-01-19 00:00:00 8.8 15 Sur 26 Sur 0.1 -- -- 77